Terminal Aerodrome Forecast
Issued by NWS Norman, OK

Current Version | Previous Version | Text Only | Print | Product List | Glossary On
Versions: 1 2 3 4 5 6 7 8 9 10 11 12 13 14 15 16 17 18 19 20 21 22 23 24 25 26
000
FTUS44 KOUN 250532
TAFOKC
TAF
KOKC 250532Z 2506/2606 14010KT P6SM BKN003
     FM251500 16012KT P6SM BKN007
     FM251800 17015KT P6SM BKN015 OVC100 PROB30 2519/2601 3SM -TSRA
      BR OVC015CB=

USA.gov is the U.S. government's official web portal to all federal, state and local government web resources and services.